Time;durP1;ratioP1;P1;durP2;ratioP2;P2;SDS_P1;SDS_P2;PMS_P1;PMS_P2;Temp;Humidity;BMP_temperature;BMP_pressure;BME280_temperature;BME280_humidity;BME280_pressure;Samples;Min_cycle;Max_cycle;Signal;HPM_P1;HPM_P2
2023/09/10 00:02:00;;;;;;;;;10.00;8.00;;;;;26.74;52.41;101370.84;5104737;27;45380;-73
2023/09/10 00:04:26;;;;;;;;;10.33;9.33;;;;;26.75;52.12;101378.00;5111005;27;58243;-73
2023/09/10 00:06:53;;;;;;;;;9.00;9.00;;;;;26.76;51.91;101371.56;5113745;27;45444;-73
2023/09/10 00:09:18;;;;;;;;;12.33;12.00;;;;;26.73;52.64;101369.16;5104190;27;45523;-74
2023/09/10 00:11:43;;;;;;;;;11.00;10.33;;;;;26.66;51.20;101358.13;5102973;27;45488;-73
2023/09/10 00:14:09;;;;;;;;;10.00;9.33;;;;;26.71;51.87;101371.19;5112191;27;45468;-73
2023/09/10 00:16:34;;;;;;;;;15.33;12.00;;;;;26.77;52.29;101378.66;5101758;27;45433;-72
2023/09/10 00:18:59;;;;;;;;;11.00;11.00;;;;;26.71;52.17;101376.59;5100057;27;45339;-73
2023/09/10 00:21:25;;;;;;;;;12.33;11.00;;;;;26.66;54.08;101371.69;5109056;27;51969;-73
2023/09/10 00:23:50;;;;;;;;;10.67;8.67;;;;;26.56;54.50;101375.53;5104061;27;45430;-73
2023/09/10 00:26:16;;;;;;;;;10.00;8.00;;;;;26.54;53.61;101374.84;5101685;27;50216;-73
2023/09/10 00:28:41;;;;;;;;;10.00;8.00;;;;;26.48;52.63;101375.47;5101087;27;45436;-73
2023/09/10 00:31:07;;;;;;;;;12.33;9.00;;;;;26.50;53.08;101376.19;5105404;27;45507;-74
2023/09/10 00:33:33;;;;;;;;;15.00;11.00;;;;;26.39;53.66;101371.88;5105679;27;45492;-74
2023/09/10 00:35:58;;;;;;;;;9.33;9.33;;;;;26.42;54.07;101388.69;5110760;27;46295;-74
2023/09/10 00:38:24;;;;;;;;;12.00;12.00;;;;;26.31;55.23;101372.66;5109210;27;51345;-73
2023/09/10 00:40:49;;;;;;;;;13.67;10.67;;;;;26.34;54.89;101377.75;5115102;27;45283;-74
2023/09/10 00:43:15;;;;;;;;;11.00;9.33;;;;;26.29;54.03;101371.13;5106956;27;45438;-73
2023/09/10 00:45:40;;;;;;;;;7.67;7.67;;;;;26.28;54.06;101378.41;5101771;27;45474;-73
2023/09/10 00:48:06;;;;;;;;;10.00;7.33;;;;;26.20;55.66;101370.22;5105785;27;45304;-73
2023/09/10 00:50:32;;;;;;;;;15.67;12.33;;;;;26.17;55.86;101380.56;5118238;27;45359;-74
2023/09/10 00:52:59;;;;;;;;;12.00;11.00;;;;;26.11;56.56;101387.41;5118442;27;45448;-73
2023/09/10 00:55:26;;;;;;;;;15.00;12.67;;;;;26.05;57.34;101381.75;5117819;27;46570;-73
2023/09/10 00:57:51;;;;;;;;;13.00;11.33;;;;;25.97;58.26;101382.56;5114457;27;45498;-73
2023/09/10 01:00:20;;;;;;;;;12.00;11.00;;;;;25.91;58.74;101388.63;5118132;27;45333;-73
2023/09/10 01:02:45;;;;;;;;;13.67;10.67;;;;;25.83;59.83;101388.53;5115031;27;45628;-75
2023/09/10 01:05:11;;;;;;;;;11.67;11.67;;;;;25.75;60.47;101392.03;5109340;27;46301;-73
2023/09/10 01:07:38;;;;;;;;;9.67;9.00;;;;;25.61;59.91;101375.47;5117339;27;45350;-73
2023/09/10 01:10:05;;;;;;;;;12.33;11.00;;;;;25.61;60.14;101389.88;5108765;27;45524;-73
2023/09/10 01:12:38;;;;;;;;;9.00;9.00;;;;;25.54;61.06;101387.94;5113908;27;45304;-73
2023/09/10 01:15:47;;;;;;;;;11.33;11.33;;;;;25.44;61.35;101390.69;5102417;27;45586;-73
2023/09/10 01:18:24;;;;;;;;;10.67;10.67;;;;;25.38;62.19;101391.31;5011955;28;45528;-72
2023/09/10 01:21:20;;;;;;;;;9.67;9.00;;;;;25.29;62.31;101395.78;5004249;28;45464;-73
2023/09/10 01:24:23;;;;;;;;;11.33;10.33;;;;;25.22;62.13;101399.25;5088262;27;45610;-73
2023/09/10 01:26:56;;;;;;;;;10.33;10.33;;;;;25.14;62.33;101391.03;5118631;27;48389;-73
2023/09/10 01:29:21;;;;;;;;;12.67;12.00;;;;;25.09;62.75;101394.22;5105803;27;46783;-73
2023/09/10 01:31:52;;;;;;;;;15.33;14.00;;;;;25.02;62.71;101394.97;5110408;27;45483;-73
2023/09/10 01:34:21;;;;;;;;;10.67;10.00;;;;;24.84;63.09;101371.41;5109080;27;45635;-73
2023/09/10 01:36:58;;;;;;;;;12.00;12.00;;;;;24.86;64.15;101382.94;5084615;27;46946;-73
2023/09/10 01:39:24;;;;;;;;;6.33;6.33;;;;;24.91;65.57;101398.72;5092755;27;45448;-73
2023/09/10 01:41:51;;;;;;;;;14.67;14.33;;;;;24.86;65.81;101396.47;5083622;27;45520;-73
2023/09/10 01:44:18;;;;;;;;;15.00;12.00;;;;;24.79;64.03;101389.91;5091872;27;45382;-73
2023/09/10 01:46:45;;;;;;;;;12.67;12.00;;;;;24.77;66.21;101400.03;5093325;27;45526;-73
2023/09/10 01:49:10;;;;;;;;;14.33;13.67;;;;;24.73;66.96;101398.63;5086346;27;45323;-74
2023/09/10 01:51:36;;;;;;;;;13.00;13.00;;;;;24.72;67.38;101401.47;5091994;27;45290;-74
2023/09/10 01:54:02;;;;;;;;;13.00;11.00;;;;;24.61;67.68;101394.41;5081562;27;45481;-72
2023/09/10 01:56:27;;;;;;;;;14.67;13.00;;;;;24.57;67.65;101389.44;5080771;27;45858;-73
2023/09/10 01:58:52;;;;;;;;;12.00;11.00;;;;;24.61;67.14;101390.84;5082965;27;45231;-74
2023/09/10 02:01:17;;;;;;;;;12.00;11.00;;;;;24.52;67.79;101395.28;5086536;27;45256;-72
2023/09/10 02:03:43;;;;;;;;;13.00;10.33;;;;;24.52;68.77;101389.03;5088253;27;45262;-73
2023/09/10 02:06:08;;;;;;;;;13.67;11.67;;;;;24.51;69.12;101401.69;5087412;27;45579;-73
2023/09/10 02:08:33;;;;;;;;;12.33;11.67;;;;;24.51;68.11;101398.16;5081994;27;45451;-73
2023/09/10 02:11:05;;;;;;;;;11.00;9.33;;;;;24.48;68.31;101403.84;5090077;27;45290;-73
2023/09/10 02:13:31;;;;;;;;;9.00;9.00;;;;;24.45;68.77;101388.75;5082916;27;45301;-73
2023/09/10 02:15:56;;;;;;;;;11.67;11.67;;;;;24.42;69.52;101388.19;5082181;27;45479;-73
2023/09/10 02:18:22;;;;;;;;;14.00;13.00;;;;;24.32;69.25;101383.69;5081533;27;45314;-73
2023/09/10 02:20:47;;;;;;;;;10.00;10.00;;;;;24.30;68.19;101382.13;5084355;27;45487;-73
2023/09/10 02:23:13;;;;;;;;;12.33;10.67;;;;;24.36;69.56;101397.75;5091489;27;45397;-73
2023/09/10 02:25:38;;;;;;;;;9.33;8.67;;;;;24.32;68.68;101393.66;5088739;27;45265;-73
2023/09/10 02:28:04;;;;;;;;;12.00;11.67;;;;;24.29;68.87;101404.75;5087127;27;45290;-73
2023/09/10 02:30:30;;;;;;;;;10.00;10.00;;;;;24.33;69.38;101398.91;5088783;27;45292;-72
2023/09/10 02:32:55;;;;;;;;;11.67;10.00;;;;;24.15;68.13;101370.91;5098459;27;45408;-72
2023/09/10 02:35:21;;;;;;;;;10.33;9.00;;;;;24.31;68.43;101398.19;5099500;27;46156;-73
2023/09/10 02:37:46;;;;;;;;;8.33;8.33;;;;;24.26;67.38;101394.22;5098020;27;45816;-73
2023/09/10 02:40:12;;;;;;;;;11.00;11.00;;;;;24.24;67.65;101391.69;5112708;27;45865;-72
2023/09/10 02:42:39;;;;;;;;;10.67;9.67;;;;;24.10;66.22;101365.06;5112586;27;45283;-72
2023/09/10 02:45:05;;;;;;;;;14.33;11.33;;;;;24.30;67.26;101399.22;5107569;27;45633;-73
2023/09/10 02:47:30;;;;;;;;;12.00;9.67;;;;;24.34;66.80;101400.59;5117503;27;45462;-73
2023/09/10 02:49:56;;;;;;;;;10.00;8.67;;;;;24.36;66.97;101403.16;5119252;27;45282;-73
2023/09/10 02:52:24;;;;;;;;;15.67;11.33;;;;;24.35;68.13;101405.03;5107618;27;45331;-73
2023/09/10 02:54:50;;;;;;;;;11.00;9.00;;;;;24.34;66.98;101410.59;5099929;27;46198;-73
2023/09/10 02:57:15;;;;;;;;;11.33;10.33;;;;;24.23;69.44;101389.97;5100067;27;45895;-72
2023/09/10 02:59:41;;;;;;;;;12.67;11.33;;;;;24.28;69.07;101403.91;5100344;27;45483;-73
2023/09/10 03:02:06;;;;;;;;;7.00;5.67;;;;;24.19;68.42;101385.84;5107396;27;51841;-73
2023/09/10 03:04:31;;;;;;;;;15.00;11.00;;;;;24.20;69.22;101379.47;5117725;27;52199;-73
2023/09/10 03:06:57;;;;;;;;;8.67;8.67;;;;;24.06;69.81;101358.25;5099268;27;45402;-72
2023/09/10 03:09:22;;;;;;;;;10.67;9.67;;;;;24.14;68.22;101377.34;5103491;27;45341;-73
2023/09/10 03:11:47;;;;;;;;;10.00;10.00;;;;;24.16;68.83;101388.00;5118025;27;50472;-73
2023/09/10 03:14:13;;;;;;;;;13.33;9.33;;;;;24.20;67.06;101390.28;5112498;27;45357;-73
2023/09/10 03:16:39;;;;;;;;;14.00;12.00;;;;;24.12;69.76;101373.06;5102381;27;45542;-72
2023/09/10 03:19:04;;;;;;;;;12.67;11.00;;;;;24.16;70.78;101382.59;5106740;27;45454;-72
2023/09/10 03:21:30;;;;;;;;;11.33;10.67;;;;;24.15;72.11;101379.03;5101005;27;45511;-73
2023/09/10 03:23:56;;;;;;;;;14.00;11.00;;;;;24.08;71.79;101372.50;5112870;27;47158;-72
2023/09/10 03:26:22;;;;;;;;;12.00;9.00;;;;;24.05;70.48;101364.63;5111365;27;45236;-73
2023/09/10 03:28:47;;;;;;;;;15.00;12.67;;;;;24.04;71.60;101371.06;5108942;27;45409;-72
2023/09/10 03:31:13;;;;;;;;;14.67;14.00;;;;;24.00;71.18;101372.34;5117526;27;45318;-73
2023/09/10 03:33:39;;;;;;;;;18.33;13.67;;;;;23.96;71.21;101373.63;5118309;27;45501;-73
2023/09/10 03:36:05;;;;;;;;;13.00;13.00;;;;;23.93;71.32;101373.06;5115755;27;45618;-73
2023/09/10 03:38:31;;;;;;;;;13.33;11.00;;;;;23.90;71.12;101371.50;5106654;27;45302;-73
2023/09/10 03:40:56;;;;;;;;;12.67;10.67;;;;;23.81;71.45;101358.88;5105847;27;45312;-74
2023/09/10 03:43:22;;;;;;;;;12.00;11.33;;;;;23.82;72.45;101369.50;5099262;27;45353;-74
2023/09/10 03:45:47;;;;;;;;;11.00;11.00;;;;;23.83;73.22;101373.06;5101126;27;45385;-73
2023/09/10 03:48:15;;;;;;;;;10.00;9.67;;;;;23.80;72.43;101371.53;5114299;27;46220;-74
2023/09/10 03:50:40;;;;;;;;;13.00;12.00;;;;;23.76;72.41;101371.94;5112955;27;45365;-74
2023/09/10 03:53:06;;;;;;;;;12.33;12.33;;;;;23.77;73.27;101373.66;5112018;27;47099;-74
2023/09/10 03:55:32;;;;;;;;;16.00;13.67;;;;;23.75;75.14;101379.22;5108739;27;45227;-74
2023/09/10 03:57:58;;;;;;;;;13.00;11.33;;;;;23.70;75.18;101364.41;5115077;27;45500;-74
2023/09/10 04:00:23;;;;;;;;;15.00;13.00;;;;;23.61;75.58;101366.13;5100320;27;45291;-73
2023/09/10 04:02:49;;;;;;;;;13.00;12.67;;;;;23.65;75.41;101380.22;5114334;27;45931;-73
2023/09/10 04:05:15;;;;;;;;;14.00;12.33;;;;;23.59;76.63;101375.38;5114962;27;45302;-74
2023/09/10 04:07:40;;;;;;;;;13.67;12.33;;;;;23.39;75.70;101343.94;5114791;27;45497;-74
2023/09/10 04:10:09;;;;;;;;;12.67;12.33;;;;;23.50;76.24;101370.81;5116166;27;45541;-74
2023/09/10 04:12:35;;;;;;;;;14.67;13.67;;;;;23.45;77.08;101368.53;5106013;27;45443;-74
2023/09/10 04:15:00;;;;;;;;;12.67;12.00;;;;;23.37;77.03;101371.06;5107173;27;45568;-74
2023/09/10 04:17:28;;;;;;;;;14.33;13.67;;;;;23.35;77.76;101370.34;5116378;27;45848;-74
2023/09/10 04:20:00;;;;;;;;;18.33;13.33;;;;;23.30;77.97;101359.97;5111725;27;45523;-74
2023/09/10 04:22:26;;;;;;;;;15.00;13.00;;;;;23.27;77.49;101371.03;5112760;27;46309;-74
2023/09/10 04:24:51;;;;;;;;;14.67;13.00;;;;;23.26;78.70;101374.75;5107324;27;45480;-73
2023/09/10 04:27:16;;;;;;;;;14.00;14.00;;;;;23.17;79.46;101366.63;5122074;27;45338;-73
2023/09/10 04:29:42;;;;;;;;;17.00;15.33;;;;;23.15;79.21;101366.78;5117418;27;45379;-74
2023/09/10 04:32:07;;;;;;;;;15.67;13.67;;;;;23.11;79.58;101364.47;5102117;27;45220;-74
2023/09/10 04:34:33;;;;;;;;;18.00;15.33;;;;;23.10;79.83;101369.00;5103504;27;45213;-74
2023/09/10 04:36:58;;;;;;;;;17.67;16.33;;;;;23.08;79.82;101370.16;5107173;27;45474;-74
2023/09/10 04:39:23;;;;;;;;;18.33;17.00;;;;;23.06;79.93;101378.41;5108511;27;45447;-73
2023/09/10 04:41:49;;;;;;;;;17.00;15.00;;;;;23.01;78.39;101364.47;5107465;27;45577;-74
2023/09/10 04:44:15;;;;;;;;;18.33;15.33;;;;;23.06;77.22;101380.25;5101895;27;45271;-74
2023/09/10 04:46:40;;;;;;;;;19.00;14.33;;;;;23.07;77.81;101373.88;5102453;27;45643;-74
2023/09/10 04:49:05;;;;;;;;;17.67;15.00;;;;;23.03;77.99;101372.44;5112855;27;45556;-74
2023/09/10 04:51:31;;;;;;;;;15.67;14.00;;;;;23.09;76.89;101375.44;5115141;27;47405;-73
2023/09/10 04:53:56;;;;;;;;;13.67;12.00;;;;;23.05;77.41;101373.13;5111552;27;45786;-74
2023/09/10 04:56:21;;;;;;;;;17.00;14.33;;;;;23.07;79.61;101381.97;5103378;27;45610;-74
2023/09/10 04:58:47;;;;;;;;;14.67;13.33;;;;;23.03;79.56;101384.09;5108961;27;45521;-74
2023/09/10 05:01:14;;;;;;;;;15.00;13.67;;;;;23.00;80.10;101381.66;5106684;27;45456;-74
2023/09/10 05:03:41;;;;;;;;;13.00;13.00;;;;;22.97;80.39;101384.59;5110736;27;45296;-74
2023/09/10 05:06:07;;;;;;;;;14.67;13.67;;;;;22.87;79.89;101378.34;5108150;27;45499;-74
2023/09/10 05:08:32;;;;;;;;;15.00;15.00;;;;;22.89;79.83;101376.38;5109602;27;45517;-74
2023/09/10 05:10:58;;;;;;;;;16.33;14.67;;;;;22.84;80.35;101378.59;5121062;27;46292;-73
2023/09/10 05:13:23;;;;;;;;;14.33;14.33;;;;;22.78;81.89;101373.75;5119154;27;45483;-74
2023/09/10 05:15:49;;;;;;;;;17.33;14.67;;;;;22.82;81.52;101386.00;5120472;27;45313;-74
2023/09/10 05:18:15;;;;;;;;;14.67;11.67;;;;;22.65;81.91;101363.19;5124357;27;45263;-74
2023/09/10 05:20:40;;;;;;;;;17.33;16.00;;;;;22.76;82.85;101387.41;5114951;27;45403;-74
2023/09/10 05:23:06;;;;;;;;;13.33;13.00;;;;;22.75;83.86;101387.53;5101890;27;45358;-74
2023/09/10 05:25:35;;;;;;;;;16.67;16.33;;;;;22.72;84.27;101399.44;5128098;27;45541;-74
2023/09/10 05:28:00;;;;;;;;;13.33;13.00;;;;;22.70;84.30;101387.94;5116579;27;45361;-74
2023/09/10 05:30:25;;;;;;;;;15.00;13.00;;;;;22.69;83.79;101390.78;5111338;27;51101;-73
2023/09/10 05:32:50;;;;;;;;;15.33;14.33;;;;;22.64;84.29;101391.13;5103918;27;45642;-74
2023/09/10 05:35:16;;;;;;;;;16.33;16.33;;;;;22.60;84.62;101380.78;5108942;27;53334;-74
2023/09/10 05:37:41;;;;;;;;;17.67;15.33;;;;;22.62;84.17;101387.72;5114512;27;45588;-74
2023/09/10 05:40:07;;;;;;;;;12.67;12.00;;;;;22.60;83.88;101388.84;5109223;27;46842;-74
2023/09/10 05:42:33;;;;;;;;;17.67;16.00;;;;;22.57;84.49;101392.69;5115471;27;45547;-74
2023/09/10 05:44:58;;;;;;;;;15.33;14.00;;;;;22.59;83.26;101396.09;5121570;27;45309;-74
2023/09/10 05:47:23;;;;;;;;;20.33;17.00;;;;;22.58;84.08;101397.06;5119497;27;45383;-74
2023/09/10 05:49:52;;;;;;;;;15.33;15.33;;;;;22.50;83.83;101382.56;5117999;27;45288;-75
2023/09/10 05:52:17;;;;;;;;;17.67;12.33;;;;;22.52;83.45;101381.44;5119022;27;45390;-74
2023/09/10 05:54:43;;;;;;;;;12.67;12.33;;;;;22.40;84.32;101369.03;5107748;27;45352;-74
2023/09/10 05:57:08;;;;;;;;;12.67;12.67;;;;;22.59;83.80;101401.47;5110246;27;45453;-73
2023/09/10 05:59:34;;;;;;;;;14.67;12.00;;;;;22.48;83.76;101384.56;5103299;27;45981;-73
2023/09/10 06:01:59;;;;;;;;;15.00;14.00;;;;;22.63;83.56;101410.16;5100301;27;45354;-74
2023/09/10 06:04:24;;;;;;;;;13.67;12.67;;;;;22.56;81.83;101396.34;5100406;27;45496;-73
2023/09/10 06:06:50;;;;;;;;;12.00;12.00;;;;;22.64;84.70;101403.78;5101716;27;45449;-74
2023/09/10 06:09:15;;;;;;;;;15.67;12.33;;;;;22.67;85.72;101398.16;5107602;27;46306;-75
2023/09/10 06:11:40;;;;;;;;;15.00;13.00;;;;;22.75;85.98;101406.41;5109361;27;45349;-74
2023/09/10 06:14:06;;;;;;;;;16.00;14.67;;;;;22.76;83.04;101395.50;5106467;27;45282;-74
2023/09/10 06:16:31;;;;;;;;;16.33;13.00;;;;;22.81;83.46;101403.16;5112313;27;45266;-74
2023/09/10 06:18:56;;;;;;;;;17.67;14.33;;;;;22.87;82.55;101402.63;5112748;27;45437;-74
2023/09/10 06:21:22;;;;;;;;;14.33;13.00;;;;;22.87;81.35;101399.94;5104166;27;45343;-74
2023/09/10 06:23:47;;;;;;;;;20.67;14.33;;;;;22.96;80.05;101409.03;5100220;27;45669;-75
2023/09/10 06:26:13;;;;;;;;;16.00;13.67;;;;;22.97;81.05;101403.50;5105246;27;45376;-74
2023/09/10 06:28:39;;;;;;;;;16.67;14.67;;;;;23.10;78.87;101406.78;5100853;27;45670;-74
2023/09/10 06:31:08;;;;;;;;;13.00;13.00;;;;;23.14;78.97;101401.97;5108412;27;45352;-73
2023/09/10 06:33:33;;;;;;;;;18.00;13.00;;;;;23.24;79.74;101413.66;5113815;27;45537;-73
2023/09/10 06:35:59;;;;;;;;;15.67;14.00;;;;;23.32;78.59;101417.38;5103142;27;45630;-74
2023/09/10 06:38:24;;;;;;;;;14.00;13.00;;;;;23.40;77.67;101415.81;5105699;27;46055;-74
2023/09/10 06:40:51;;;;;;;;;16.67;14.33;;;;;23.45;76.95;101421.69;5102264;27;45574;-74
2023/09/10 06:43:16;;;;;;;;;15.67;13.00;;;;;23.45;76.64;101397.38;5114778;27;45295;-74
2023/09/10 06:45:43;;;;;;;;;16.00;14.67;;;;;23.59;76.04;101408.63;5106388;27;45319;-74
2023/09/10 06:48:08;;;;;;;;;14.67;13.33;;;;;23.66;76.53;101411.59;5110727;27;46369;-75
2023/09/10 06:50:33;;;;;;;;;18.33;14.33;;;;;23.73;75.75;101413.59;5106437;27;45335;-75
2023/09/10 06:52:59;;;;;;;;;12.33;11.67;;;;;23.81;74.79;101415.59;5122260;27;49253;-75
2023/09/10 06:55:24;;;;;;;;;12.00;11.33;;;;;23.90;74.18;101416.59;5120945;27;45596;-74
2023/09/10 06:57:49;;;;;;;;;13.33;13.33;;;;;23.92;73.79;101407.34;5120846;27;46686;-73
2023/09/10 07:00:15;;;;;;;;;16.00;13.67;;;;;24.04;72.98;101408.91;5104847;27;45308;-75
2023/09/10 07:02:40;;;;;;;;;12.67;12.67;;;;;24.10;73.23;101402.06;5102971;27;45451;-74
2023/09/10 07:05:06;;;;;;;;;12.33;12.33;;;;;24.25;71.33;101416.84;5104760;27;54534;-75
2023/09/10 07:07:31;;;;;;;;;13.00;11.00;;;;;24.34;70.20;101422.22;5112699;27;45504;-74
2023/09/10 07:09:57;;;;;;;;;14.00;13.00;;;;;24.28;70.94;101384.97;5108522;27;45364;-74
2023/09/10 07:12:22;;;;;;;;;15.33;14.33;;;;;24.48;70.45;101410.09;5105655;27;45524;-74
2023/09/10 07:14:49;;;;;;;;;15.33;15.33;;;;;24.64;69.69;101417.63;5113804;27;45501;-74
2023/09/10 07:17:15;;;;;;;;;13.67;11.00;;;;;24.73;69.64;101422.13;5101331;27;45366;-74
2023/09/10 07:19:40;;;;;;;;;18.00;13.33;;;;;24.74;70.13;101402.16;5114441;27;45362;-73
2023/09/10 07:22:06;;;;;;;;;13.67;12.33;;;;;24.83;70.07;101413.00;5100900;27;45346;-74
2023/09/10 07:24:31;;;;;;;;;16.33;14.00;;;;;24.90;69.93;101418.69;5099839;27;45290;-74
2023/09/10 07:26:58;;;;;;;;;14.67;14.00;;;;;24.98;69.29;101420.63;5112297;27;45439;-73
2023/09/10 07:29:24;;;;;;;;;14.33;13.00;;;;;25.05;69.07;101428.00;5105756;27;45678;-74
2023/09/10 07:31:49;;;;;;;;;10.67;10.00;;;;;25.09;68.38;101423.13;5117791;27;45491;-73
2023/09/10 07:34:15;;;;;;;;;12.33;11.00;;;;;25.18;67.86;101427.63;5105241;27;45556;-74
2023/09/10 07:36:40;;;;;;;;;15.00;9.33;;;;;25.24;66.39;101427.88;5106779;27;46094;-73
2023/09/10 07:39:06;;;;;;;;;12.67;12.33;;;;;25.36;66.40;101426.66;5099181;27;45485;-73
2023/09/10 07:41:32;;;;;;;;;12.67;12.00;;;;;25.39;67.75;101429.06;5112426;27;45453;-73
2023/09/10 07:43:59;;;;;;;;;9.67;9.67;;;;;25.57;66.99;101433.69;5118089;27;45399;-73
2023/09/10 07:46:24;;;;;;;;;11.67;10.33;;;;;25.63;64.57;101425.78;5112938;27;45476;-73
2023/09/10 07:48:49;;;;;;;;;16.33;11.00;;;;;25.73;62.94;101421.16;5111702;27;45672;-73
2023/09/10 07:51:15;;;;;;;;;12.00;10.00;;;;;25.91;61.11;101435.53;5120845;27;45377;-73
2023/09/10 07:53:40;;;;;;;;;12.33;11.00;;;;;26.04;61.43;101431.59;5105475;27;45354;-72
2023/09/10 07:56:06;;;;;;;;;14.00;9.67;;;;;26.12;61.66;101418.09;5101389;27;46724;-73
2023/09/10 07:58:31;;;;;;;;;11.33;9.00;;;;;26.23;59.58;101428.72;5118059;27;45231;-73
2023/09/10 08:00:57;;;;;;;;;9.33;8.67;;;;;26.32;59.80;101420.47;5103365;27;45449;-73
2023/09/10 08:03:23;;;;;;;;;13.67;10.00;;;;;26.48;59.86;101427.00;5115069;27;45265;-73
2023/09/10 08:05:48;;;;;;;;;12.00;10.00;;;;;26.57;59.46;101432.31;5103597;27;46130;-73
2023/09/10 08:08:13;;;;;;;;;8.00;7.00;;;;;26.63;59.38;101429.00;5102695;27;45335;-73
2023/09/10 08:10:39;;;;;;;;;12.33;10.00;;;;;26.65;58.14;101405.25;5120218;27;45560;-73
2023/09/10 08:13:04;;;;;;;;;11.33;9.33;;;;;26.79;55.56;101418.22;5112937;27;47990;-73
2023/09/10 08:15:31;;;;;;;;;9.00;8.67;;;;;26.96;56.76;101423.75;5121219;27;46440;-73
2023/09/10 08:17:58;;;;;;;;;10.67;9.33;;;;;26.98;55.27;101410.88;5115964;27;45323;-73
2023/09/10 08:20:24;;;;;;;;;10.67;9.00;;;;;27.15;56.81;101429.78;5113990;27;45369;-74
2023/09/10 08:22:49;;;;;;;;;11.33;9.33;;;;;27.27;55.94;101419.44;5119174;27;45370;-74
2023/09/10 08:25:14;;;;;;;;;11.33;8.00;;;;;27.39;55.06;101426.28;5110797;27;45348;-74
2023/09/10 08:27:40;;;;;;;;;9.00;8.67;;;;;27.52;53.74;101414.97;5109604;27;45361;-74
2023/09/10 08:30:07;;;;;;;;;11.67;10.67;;;;;27.69;54.64;101416.69;5112474;27;45378;-74
2023/09/10 08:32:33;;;;;;;;;7.67;7.67;;;;;27.79;54.86;101401.06;5102019;27;45283;-74
2023/09/10 08:34:58;;;;;;;;;9.33;9.33;;;;;27.88;52.88;101394.59;5101287;27;45317;-74
2023/09/10 08:37:24;;;;;;;;;9.00;9.00;;;;;28.09;52.16;101408.56;5104609;27;45307;-75
2023/09/10 08:39:50;;;;;;;;;9.67;9.00;;;;;28.26;52.82;101415.72;5110537;27;45298;-74
2023/09/10 08:42:34;;;;;;;;;12.00;9.33;;;;;28.40;53.15;101414.16;5119467;27;45320;-74
2023/09/10 08:45:06;;;;;;;;;9.67;8.33;;;;;28.51;54.30;101402.88;5116377;27;45465;-74
2023/09/10 08:47:39;;;;;;;;;10.33;10.33;;;;;28.54;51.27;101401.69;5124494;27;45294;-73
2023/09/10 08:50:11;;;;;;;;;8.33;8.00;;;;;28.66;50.73;101401.19;5112023;27;45346;-74
2023/09/10 08:52:39;;;;;;;;;10.00;9.67;;;;;28.84;50.18;101406.38;5099046;27;45761;-73
2023/09/10 08:55:06;;;;;;;;;11.00;10.00;;;;;28.91;49.43;101407.38;5103534;27;46513;-73
2023/09/10 08:57:32;;;;;;;;;9.00;8.00;;;;;28.99;49.69;101414.69;5103203;27;45343;-74
2023/09/10 08:59:59;;;;;;;;;11.67;9.00;;;;;29.00;49.69;101400.00;5119966;27;45278;-74
2023/09/10 09:02:25;;;;;;;;;11.67;11.67;;;;;29.14;49.49;101410.19;5119716;27;45553;-73
2023/09/10 09:04:50;;;;;;;;;11.33;10.00;;;;;29.21;50.21;101406.56;5116384;27;46480;-74
2023/09/10 09:07:19;;;;;;;;;9.67;9.67;;;;;29.20;50.31;101387.66;5105746;27;45378;-75
2023/09/10 09:09:50;;;;;;;;;12.00;9.67;;;;;29.36;48.64;101406.66;5105073;27;45459;-74
2023/09/10 09:12:17;;;;;;;;;11.67;9.67;;;;;29.44;48.35;101398.47;5101134;27;45426;-75
2023/09/10 09:14:46;;;;;;;;;10.00;8.33;;;;;29.57;48.17;101390.53;5103820;27;45722;-74
2023/09/10 09:17:14;;;;;;;;;11.00;11.00;;;;;29.68;47.47;101392.00;5112378;27;45413;-74
2023/09/10 09:19:43;;;;;;;;;9.00;8.33;;;;;29.72;48.38;101385.13;5103320;27;45291;-74
2023/09/10 09:22:11;;;;;;;;;11.33;7.33;;;;;29.74;47.42;101385.81;5111674;27;45359;-74
2023/09/10 09:24:37;;;;;;;;;11.33;11.33;;;;;29.84;47.71;101392.72;5100062;27;45501;-75
2023/09/10 09:27:04;;;;;;;;;12.33;11.00;;;;;30.04;47.72;101398.50;5104081;27;45233;-74
2023/09/10 09:29:30;;;;;;;;;11.33;8.33;;;;;30.11;47.36;101377.66;5108803;27;45623;-75
2023/09/10 09:31:56;;;;;;;;;8.33;8.00;;;;;30.12;45.23;101373.91;5111043;27;45374;-74
2023/09/10 09:34:21;;;;;;;;;10.00;10.00;;;;;30.23;46.18;101373.44;5073690;27;1121431;-74
2023/09/10 09:36:53;;;;;;;;;13.00;9.67;;;;;30.38;46.59;101381.63;5110005;27;45628;-74
2023/09/10 09:39:20;;;;;;;;;10.33;9.00;;;;;30.41;44.05;101379.41;5108460;27;45530;-75
2023/09/10 09:41:53;;;;;;;;;12.00;10.67;;;;;30.44;47.52;101367.28;5112288;27;45229;-74
2023/09/10 09:44:19;;;;;;;;;9.33;9.00;;;;;30.55;45.47;101365.97;5112203;27;45308;-74
2023/09/10 09:46:47;;;;;;;;;11.00;10.00;;;;;30.64;46.19;101370.28;5115564;27;45506;-74
2023/09/10 09:49:13;;;;;;;;;10.67;10.00;;;;;30.73;45.66;101380.91;5121828;27;45377;-74
2023/09/10 09:51:40;;;;;;;;;11.33;9.67;;;;;30.78;45.53;101366.69;5114562;27;46170;-74
2023/09/10 09:54:07;;;;;;;;;8.00;8.00;;;;;30.80;45.28;101375.53;5119332;27;47499;-74
2023/09/10 09:56:32;;;;;;;;;10.00;10.00;;;;;30.88;44.62;101370.00;5114793;27;46281;-74
2023/09/10 09:58:58;;;;;;;;;9.67;8.67;;;;;30.92;45.48;101368.56;5103778;27;45351;-75
2023/09/10 10:01:24;;;;;;;;;13.00;10.33;;;;;30.95;44.66;101368.19;5100636;27;45492;-74
2023/09/10 10:03:50;;;;;;;;;10.67;10.00;;;;;30.96;45.34;101359.81;5114527;27;45483;-74
2023/09/10 10:06:17;;;;;;;;;13.00;12.00;;;;;31.04;44.51;101367.06;5101531;27;45741;-75
2023/09/10 10:08:48;;;;;;;;;11.33;9.33;;;;;31.11;44.81;101372.63;5113151;27;45474;-74
2023/09/10 10:11:15;;;;;;;;;9.67;9.67;;;;;31.10;43.19;101363.56;5101430;27;45452;-74
2023/09/10 10:13:41;;;;;;;;;12.00;11.33;;;;;31.06;44.72;101345.84;5106296;27;46084;-74
2023/09/10 10:16:07;;;;;;;;;11.67;10.33;;;;;31.20;43.32;101360.53;5116612;27;45215;-74
2023/09/10 10:18:33;;;;;;;;;11.00;10.67;;;;;31.21;43.52;101363.06;5110435;27;45440;-74
2023/09/10 10:21:00;;;;;;;;;8.00;8.00;;;;;31.23;44.06;101349.19;5107560;27;45417;-74
2023/09/10 10:23:25;;;;;;;;;10.33;10.33;;;;;31.26;43.41;101349.66;5112773;27;46072;-74
2023/09/10 10:25:52;;;;;;;;;11.00;9.33;;;;;31.34;43.90;101357.75;5101047;27;45391;-74
2023/09/10 10:28:19;;;;;;;;;10.67;10.67;;;;;31.38;44.68;101344.53;5105727;27;45400;-74
2023/09/10 10:31:06;;;;;;;;;11.33;10.00;;;;;31.46;45.77;101338.94;5108297;27;45386;-75
2023/09/10 10:33:33;;;;;;;;;11.67;11.67;;;;;31.47;44.60;101343.38;5112068;27;45380;-73
2023/09/10 10:36:13;;;;;;;;;11.33;10.33;;;;;31.54;43.14;101343.47;5118819;27;45399;-74
2023/09/10 10:38:43;;;;;;;;;12.00;11.00;;;;;31.51;43.95;101332.91;5114837;27;45443;-74
2023/09/10 10:41:14;;;;;;;;;12.33;11.00;;;;;31.48;43.61;101332.22;5117200;27;45632;-74
2023/09/10 10:43:45;;;;;;;;;13.67;12.67;;;;;31.40;42.54;101326.91;5104503;27;46317;-74
2023/09/10 10:46:12;;;;;;;;;9.67;9.33;;;;;31.51;43.98;101344.72;5109298;27;45338;-74
2023/09/10 10:48:41;;;;;;;;;11.33;11.33;;;;;31.55;44.24;101339.66;5103717;27;45400;-74
2023/09/10 10:51:10;;;;;;;;;13.00;13.00;;;;;31.52;43.99;101327.22;5118005;27;45384;-74
2023/09/10 10:53:36;;;;;;;;;13.33;11.00;;;;;31.47;43.22;101305.09;5120677;27;47790;-75
2023/09/10 10:56:04;;;;;;;;;13.00;10.00;;;;;31.48;42.65;101304.88;5099471;27;45478;-75
2023/09/10 10:58:31;;;;;;;;;14.00;12.33;;;;;31.63;43.97;101315.78;5099472;27;45474;-75
2023/09/10 11:00:58;;;;;;;;;9.67;9.67;;;;;31.66;44.08;101314.53;5101207;27;45461;-74
2023/09/10 11:03:24;;;;;;;;;14.33;12.33;;;;;31.69;43.69;101315.00;5101084;27;45500;-75
2023/09/10 11:06:05;;;;;;;;;16.33;12.33;;;;;31.71;44.05;101307.41;5114731;27;45406;-75
2023/09/10 11:08:31;;;;;;;;;10.33;10.33;;;;;31.75;42.68;101307.88;5105943;27;45453;-74
2023/09/10 11:10:58;;;;;;;;;14.33;11.67;;;;;31.80;43.08;101310.88;5117451;27;46362;-74